Startpagina
METAR-TAF:

METAR-TAF

Vliegvelden :

Vliegbasis Eindhoven

Eindhoven, Nederland

breedte: 51-27N, lengte: 005-25E, hoogte: 23 m

Actueel weer

Dit bericht is 23 minuten geleden gemaakt, om 04:55 UTC
Wind 1 kt uit het noorden
Temperatuur -5°C
Vochtigheid 93%
Druk 1027 hPa
Zicht 10 km of meer

METAR: EHEH 070455Z AUTO 35001KT 9999 NCD M05/M06 Q1027 BLU

Tijdstip: 06:18 (05:18 UTC)

Verwachting

Dit bericht is 12 uur en het 11 minuten geleden gemaakt, om 17:07 UTC
Verwachting geldig van 06 om 18 UTC tot 07 om 24 UTC
Wind 4 kt uit het noordoosten
Zicht 10 km of meer
geen wolken onder 1500 m en geen cumulonimbus
Wijzigt naar
van 06 om 23 UTC tot 07 om 01 UTC
Zicht: 2500 m
nevel, Ondiepe mist
Kans 40%
van 07 om 01 UTC tot 07 om 09 UTC
Zicht: 0500 m
lager dan 100 ft
onderkoelde mist
Wijzigt naar
van 07 om 08 UTC tot 07 om 10 UTC
Zicht 10 km of meer
Verspreide wolken op 4000 ft

TAF: EHEH 061707Z 0618/0724 04004KT CAVOK BECMG 0623/0701 2500 BR MIFG PROB40 0701/0709 0500 FZFG VV000 BECMG 0708/0710 9999 NSW SCT040

Waarnemingen en weersverwachtingen van meer dan 4000 vliegvelden (METAR en TAF).

De beschikbare stations zijn de gele en rode punten op de kaart.

Ga met uw muis naar het station om de naam te zien.

Klik dan om waarnemingen en weersverwachtingen te zien.

kaart wijzigen: klik op de groene knoppen met een zwart kruis om in te zoomen, op de groene knop met een streepje om uit te zoomen of op de groene pijlen voor aangrenzende kaarten.


METAR-TAF: